Time;durP1;ratioP1;P1;durP2;ratioP2;P2;SDS_P1;SDS_P2;PMS_P1;PMS_P2;Temp;Humidity;BMP_temperature;BMP_pressure;BME280_temperature;BME280_humidity;BME280_pressure;Samples;Min_cycle;Max_cycle;Signal;HPM_P1;HPM_P2
2021/11/21 00:00:06;;;;;;;10.27;2.03;;;8.90;99.90;;;;;;5053216;28;20064;-67
2021/11/21 00:02:32;;;;;;;13.95;2.67;;;8.80;99.90;;;;;;5053077;28;20075;-66
2021/11/21 00:04:57;;;;;;;15.43;2.13;;;8.90;99.90;;;;;;5053005;28;20487;-67
2021/11/21 00:07:23;;;;;;;21.10;2.40;;;8.90;99.90;;;;;;5053122;28;20108;-67
2021/11/21 00:09:50;;;;;;;27.73;3.75;;;8.80;99.90;;;;;;5052487;28;20024;-66
2021/11/21 00:12:16;;;;;;;20.00;2.33;;;8.80;99.90;;;;;;5053748;28;20387;-67
2021/11/21 00:14:42;;;;;;;21.17;3.58;;;8.80;99.90;;;;;;5053288;28;20025;-66
2021/11/21 00:17:08;;;;;;;11.45;1.63;;;8.80;99.90;;;;;;5053016;28;20534;-66
2021/11/21 00:19:35;;;;;;;22.58;1.92;;;8.80;99.90;;;;;;5052998;28;20368;-67
2021/11/21 00:22:01;;;;;;;16.80;2.22;;;8.80;99.90;;;;;;5053156;28;20022;-67
2021/11/21 00:24:26;;;;;;;11.48;1.75;;;8.80;99.90;;;;;;5052377;28;20031;-66
2021/11/21 00:26:52;;;;;;;21.13;2.30;;;8.80;99.90;;;;;;5052863;28;20451;-67
2021/11/21 00:29:17;;;;;;;23.70;3.40;;;8.90;99.90;;;;;;5052915;28;20032;-67
2021/11/21 00:31:43;;;;;;;24.25;2.38;;;8.90;99.90;;;;;;5053090;28;20025;-67
2021/11/21 00:34:08;;;;;;;25.73;2.10;;;8.90;99.90;;;;;;5053132;28;20029;-67
2021/11/21 00:36:34;;;;;;;22.88;3.53;;;8.90;99.90;;;;;;5052334;28;20369;-66
2021/11/21 00:38:59;;;;;;;14.82;2.15;;;8.90;99.90;;;;;;5053047;28;20025;-67
2021/11/21 00:41:25;;;;;;;18.17;2.22;;;8.90;99.90;;;;;;5052734;28;20100;-67
2021/11/21 00:43:51;;;;;;;36.75;3.70;;;9.00;99.90;;;;;;5055898;28;20498;-66
2021/11/21 00:46:16;;;;;;;31.88;4.70;;;9.00;99.90;;;;;;5056341;28;20117;-66
2021/11/21 00:48:42;;;;;;;30.35;2.67;;;9.00;99.90;;;;;;5056600;28;20021;-67
2021/11/21 00:51:08;;;;;;;37.20;3.47;;;9.00;99.90;;;;;;5056513;28;20025;-67
2021/11/21 00:53:35;;;;;;;35.45;2.80;;;9.00;99.90;;;;;;5056508;28;20130;-67
2021/11/21 00:56:03;;;;;;;30.38;3.67;;;9.10;99.90;;;;;;5056646;28;20021;-67
2021/11/21 00:58:29;;;;;;;22.40;2.47;;;9.00;99.90;;;;;;5056432;28;20029;-67
2021/11/21 01:00:55;;;;;;;24.45;2.88;;;9.00;99.90;;;;;;5055813;28;20479;-67
2021/11/21 01:03:23;;;;;;;31.88;2.53;;;9.00;99.90;;;;;;5056559;28;20040;-67
2021/11/21 01:05:50;;;;;;;36.33;3.22;;;9.00;99.90;;;;;;5056118;28;20036;-67
2021/11/21 01:08:17;;;;;;;25.65;2.83;;;9.00;99.90;;;;;;5056230;28;20029;-67
2021/11/21 01:10:44;;;;;;;39.50;3.15;;;9.00;99.90;;;;;;5038242;28;20025;-65
2021/11/21 01:13:10;;;;;;;38.65;4.13;;;9.00;99.90;;;;;;5056089;28;20392;-67
2021/11/21 01:15:37;;;;;;;30.90;3.47;;;9.00;99.90;;;;;;5056015;28;20108;-67
2021/11/21 01:18:04;;;;;;;37.20;3.88;;;9.00;99.90;;;;;;5056330;28;20043;-67
2021/11/21 01:20:32;;;;;;;25.17;3.10;;;9.00;99.90;;;;;;5055399;28;20071;-67
2021/11/21 01:22:58;;;;;;;49.40;4.00;;;9.00;99.90;;;;;;5056209;28;20028;-67
2021/11/21 01:25:23;;;;;;;38.88;4.05;;;8.90;99.90;;;;;;5055855;28;20025;-67
2021/11/21 01:27:49;;;;;;;32.03;3.38;;;8.90;99.90;;;;;;5055913;28;20479;-67
2021/11/21 01:30:19;;;;;;;26.95;2.85;;;8.90;99.90;;;;;;5055377;28;20028;-67
2021/11/21 01:32:47;;;;;;;38.33;3.95;;;8.80;99.90;;;;;;5055834;28;20021;-67
2021/11/21 01:35:14;;;;;;;39.10;3.83;;;8.80;99.90;;;;;;5055754;28;20029;-67
2021/11/21 01:37:39;;;;;;;37.22;4.75;;;8.70;99.90;;;;;;5055972;28;20029;-67
2021/11/21 01:40:08;;;;;;;48.67;6.85;;;8.60;99.90;;;;;;5055740;28;20051;-67
2021/11/21 01:42:33;;;;;;;43.63;5.25;;;8.60;99.90;;;;;;5055512;28;20033;-67
2021/11/21 01:44:59;;;;;;;44.45;3.75;;;8.50;99.90;;;;;;5055521;28;20079;-67
2021/11/21 01:47:25;;;;;;;27.73;3.53;;;8.50;99.90;;;;;;5055775;28;20021;-67
2021/11/21 01:49:50;;;;;;;61.17;5.22;;;8.50;99.90;;;;;;5054908;28;20411;-67
2021/11/21 01:52:16;;;;;;;39.13;5.32;;;8.40;99.90;;;;;;5055346;28;20033;-67
2021/11/21 01:54:42;;;;;;;44.50;4.35;;;8.40;99.90;;;;;;5054549;28;20036;-67
2021/11/21 01:57:07;;;;;;;29.45;3.60;;;8.30;99.90;;;;;;5055339;28;20021;-67
2021/11/21 01:59:34;;;;;;;45.28;4.75;;;8.30;99.90;;;;;;5054803;28;20024;-66
2021/11/21 02:02:00;;;;;;;34.72;4.82;;;8.30;99.90;;;;;;5055170;28;20156;-67
2021/11/21 02:04:26;;;;;;;48.97;5.20;;;8.30;99.90;;;;;;5055197;28;20075;-67
2021/11/21 02:06:51;;;;;;;32.13;3.55;;;8.30;99.90;;;;;;5055087;28;20562;-67
2021/11/21 02:09:17;;;;;;;57.58;4.50;;;8.30;99.90;;;;;;5055093;28;20072;-67
2021/11/21 02:11:42;;;;;;;37.85;4.55;;;8.30;99.90;;;;;;5054468;28;20495;-67
2021/11/21 02:14:08;;;;;;;29.42;4.18;;;8.30;99.90;;;;;;5055015;28;20472;-67
2021/11/21 02:16:35;;;;;;;27.67;4.35;;;8.30;99.90;;;;;;5054982;28;20060;-67
2021/11/21 02:19:02;;;;;;;42.83;5.28;;;8.30;99.90;;;;;;5054935;28;20025;-67
2021/11/21 02:21:28;;;;;;;47.50;4.35;;;8.30;99.90;;;;;;5055067;28;20028;-67
2021/11/21 02:23:54;;;;;;;45.38;5.20;;;8.30;99.90;;;;;;5054443;28;20028;-67
2021/11/21 02:26:20;;;;;;;44.85;5.03;;;8.20;99.90;;;;;;5054698;28;20103;-67
2021/11/21 02:28:47;;;;;;;45.05;4.10;;;8.20;99.90;;;;;;5054723;28;20053;-67
2021/11/21 02:31:14;;;;;;;42.70;4.75;;;8.20;99.90;;;;;;5054905;28;20052;-67
2021/11/21 02:33:41;;;;;;;43.50;3.88;;;8.10;99.90;;;;;;5054629;28;20017;-67
2021/11/21 02:36:08;;;;;;;59.15;4.47;;;8.00;99.90;;;;;;5054554;28;20487;-67
2021/11/21 02:38:36;;;;;;;51.22;5.70;;;8.00;99.90;;;;;;5044356;28;20033;-67
2021/11/21 02:41:05;;;;;;;39.33;4.68;;;7.90;99.90;;;;;;5054269;28;20392;-68
2021/11/21 02:43:31;;;;;;;45.85;6.38;;;7.90;99.90;;;;;;5054829;28;20108;-68
2021/11/21 02:45:57;;;;;;;52.13;6.72;;;7.90;99.90;;;;;;5054343;28;20036;-68
2021/11/21 02:48:27;;;;;;;35.85;3.88;;;7.90;99.90;;;;;;5049964;28;20025;-67
2021/11/21 02:50:53;;;;;;;52.25;5.40;;;7.90;99.90;;;;;;5041498;28;20033;-67
2021/11/21 02:53:21;;;;;;;51.45;5.53;;;7.80;99.90;;;;;;5044770;28;20107;-68
2021/11/21 02:55:50;;;;;;;58.10;6.57;;;7.90;99.90;;;;;;5043574;28;20029;-68
2021/11/21 02:58:16;;;;;;;49.00;5.57;;;7.90;99.90;;;;;;5041816;28;20030;-68
2021/11/21 03:00:41;;;;;;;61.30;5.32;;;7.80;99.90;;;;;;5052591;28;20115;-68
2021/11/21 03:03:07;;;;;;;45.50;5.53;;;7.80;99.90;;;;;;5047840;28;20037;-68
2021/11/21 03:05:34;;;;;;;44.08;5.88;;;7.70;99.90;;;;;;5037418;28;20124;-67
2021/11/21 03:08:00;;;;;;;45.45;6.30;;;7.70;99.90;;;;;;5033541;28;20025;-66
2021/11/21 03:10:27;;;;;;;50.13;5.57;;;7.70;99.90;;;;;;5036703;28;20056;-66
2021/11/21 03:12:56;;;;;;;46.92;6.30;;;7.70;99.90;;;;;;5044880;28;20071;-66
2021/11/21 03:15:23;;;;;;;41.70;4.65;;;7.60;99.90;;;;;;5042443;28;20365;-66
2021/11/21 03:17:49;;;;;;;39.17;4.47;;;7.50;99.90;;;;;;5033833;28;20026;-67
2021/11/21 03:20:19;;;;;;;42.90;4.65;;;7.50;99.90;;;;;;5033223;28;20037;-67
2021/11/21 03:22:45;;;;;;;51.75;5.65;;;7.50;99.90;;;;;;5033630;28;20072;-67
2021/11/21 03:25:11;;;;;;;52.17;6.18;;;7.50;99.90;;;;;;5033590;28;20037;-66
2021/11/21 03:27:37;;;;;;;56.33;4.35;;;7.50;99.90;;;;;;5033950;28;20040;-67
2021/11/21 03:30:06;;;;;;;60.63;6.00;;;7.50;99.90;;;;;;5033150;28;20030;-66
2021/11/21 03:32:31;;;;;;;33.42;4.68;;;7.50;99.90;;;;;;5033717;28;20387;-67
2021/11/21 03:34:57;;;;;;;55.58;4.88;;;7.40;99.90;;;;;;5033551;28;20152;-67
2021/11/21 03:37:23;;;;;;;42.83;4.82;;;7.40;99.90;;;;;;5033505;28;20472;-67
2021/11/21 03:39:49;;;;;;;40.28;4.15;;;7.40;99.90;;;;;;5033396;28;20079;-67
2021/11/21 03:42:15;;;;;;;41.88;4.70;;;7.30;99.90;;;;;;5033027;28;20025;-66
2021/11/21 03:44:41;;;;;;;27.20;5.28;;;7.20;99.90;;;;;;5033456;28;20096;-67
2021/11/21 03:47:06;;;;;;;32.78;4.22;;;7.10;99.90;;;;;;5033603;28;20128;-67
2021/11/21 03:49:32;;;;;;;36.08;4.38;;;7.00;99.90;;;;;;5033412;28;20021;-67
2021/11/21 03:51:58;;;;;;;36.28;4.60;;;6.90;99.90;;;;;;5033380;28;20055;-66
2021/11/21 03:54:23;;;;;;;39.00;4.72;;;6.80;99.90;;;;;;5043550;28;20479;-67
2021/11/21 03:56:49;;;;;;;33.35;4.32;;;6.70;99.90;;;;;;5053473;28;20025;-67
2021/11/21 03:59:15;;;;;;;31.15;3.78;;;6.60;99.90;;;;;;5053191;28;20036;-67
2021/11/21 04:01:40;;;;;;;27.23;3.92;;;6.60;99.90;;;;;;5052492;28;20025;-66
2021/11/21 04:04:07;;;;;;;31.48;4.63;;;6.50;99.90;;;;;;5053147;28;20021;-67
2021/11/21 04:06:33;;;;;;;31.63;3.55;;;6.40;99.90;;;;;;5052942;28;20025;-67
2021/11/21 04:08:59;;;;;;;43.58;4.78;;;6.40;99.90;;;;;;5046970;28;20074;-67
2021/11/21 04:11:24;;;;;;;40.33;5.07;;;6.30;99.90;;;;;;5052456;28;20434;-66
2021/11/21 04:13:50;;;;;;;35.47;4.53;;;6.20;99.90;;;;;;5053261;28;20017;-67
2021/11/21 04:16:15;;;;;;;44.88;5.32;;;6.20;99.90;;;;;;5053028;28;20036;-67
2021/11/21 04:18:42;;;;;;;28.70;4.18;;;6.20;99.90;;;;;;5056292;28;20059;-67
2021/11/21 04:21:08;;;;;;;30.58;3.95;;;6.10;99.90;;;;;;5053787;28;20040;-67
2021/11/21 04:23:34;;;;;;;26.45;3.40;;;5.90;99.90;;;;;;5037227;28;20491;-67
2021/11/21 04:26:00;;;;;;;39.90;4.22;;;5.80;99.90;;;;;;5036714;28;20060;-66
2021/11/21 04:28:27;;;;;;;37.20;4.05;;;5.70;99.90;;;;;;5037060;28;20075;-67
2021/11/21 04:30:53;;;;;;;25.70;3.50;;;5.60;99.90;;;;;;5037518;28;20029;-67
2021/11/21 04:33:20;;;;;;;24.10;2.55;;;5.60;99.90;;;;;;5037233;28;20108;-67
2021/11/21 04:35:46;;;;;;;19.92;2.47;;;5.50;99.90;;;;;;5036677;28;20030;-67
2021/11/21 04:38:11;;;;;;;27.48;3.42;;;5.40;99.90;;;;;;5036876;28;20105;-67
2021/11/21 04:40:37;;;;;;;28.92;3.03;;;5.30;99.90;;;;;;5036769;28;20029;-67
2021/11/21 04:43:03;;;;;;;23.88;3.55;;;5.30;99.90;;;;;;5037347;28;20104;-67
2021/11/21 04:45:28;;;;;;;24.40;3.00;;;5.30;99.90;;;;;;5036665;28;20089;-67
2021/11/21 04:47:54;;;;;;;16.70;3.22;;;5.20;99.90;;;;;;5036991;28;20025;-67
2021/11/21 04:50:20;;;;;;;25.33;2.47;;;5.10;99.90;;;;;;5035990;28;20025;-67
2021/11/21 04:52:45;;;;;;;24.42;2.53;;;5.00;99.90;;;;;;5036724;28;20030;-66
2021/11/21 04:55:12;;;;;;;64.05;4.22;;;4.90;99.90;;;;;;5036819;28;20033;-67
2021/11/21 04:57:39;;;;;;;24.52;2.75;;;4.80;99.90;;;;;;5036810;28;20041;-67
2021/11/21 05:00:08;;;;;;;22.95;3.30;;;4.80;99.90;;;;;;5036493;28;20384;-67
2021/11/21 05:02:39;;;;;;;23.02;2.00;;;4.70;99.90;;;;;;5035774;28;20123;-67
2021/11/21 05:05:05;;;;;;;23.23;2.90;;;4.70;99.90;;;;;;5036330;28;20030;-67
2021/11/21 05:07:31;;;;;;;11.65;2.38;;;4.80;99.90;;;;;;5036374;28;20032;-67
2021/11/21 05:09:56;;;;;;;20.27;2.58;;;4.80;99.90;;;;;;5036317;28;20021;-67
2021/11/21 05:12:23;;;;;;;31.73;2.83;;;5.00;99.90;;;;;;5036494;28;20479;-67
2021/11/21 05:14:49;;;;;;;27.33;4.20;;;5.20;99.90;;;;;;5035654;28;20026;-67
2021/11/21 05:17:14;;;;;;;26.05;4.10;;;5.30;99.90;;;;;;5036410;28;20108;-67
2021/11/21 05:19:40;;;;;;;37.55;3.28;;;5.40;99.90;;;;;;5036402;28;20072;-67
2021/11/21 05:22:06;;;;;;;32.05;3.08;;;5.50;99.90;;;;;;5036102;28;20411;-67
2021/11/21 05:24:31;;;;;;;35.83;3.40;;;5.60;99.90;;;;;;5036049;28;20135;-67
2021/11/21 05:26:57;;;;;;;37.42;3.58;;;5.40;99.90;;;;;;5035230;28;20037;-67
2021/11/21 05:29:23;;;;;;;41.33;3.35;;;5.40;99.90;;;;;;5036382;28;20025;-67
2021/11/21 05:31:49;;;;;;;28.05;3.35;;;5.40;99.90;;;;;;5035932;28;20120;-67
2021/11/21 05:34:15;;;;;;;25.02;2.85;;;5.40;99.90;;;;;;5035860;28;20026;-67
2021/11/21 05:36:41;;;;;;;44.00;4.05;;;5.40;99.90;;;;;;5036069;28;20025;-66
2021/11/21 05:39:09;;;;;;;29.15;4.28;;;5.40;99.90;;;;;;5041482;28;20037;-66
2021/11/21 05:41:34;;;;;;;42.90;3.97;;;5.40;99.90;;;;;;5053479;28;20059;-67
2021/11/21 05:44:00;;;;;;;22.20;3.33;;;5.30;99.90;;;;;;5055611;28;20025;-67
2021/11/21 05:46:25;;;;;;;17.42;3.33;;;5.10;99.90;;;;;;5039118;28;20116;-67
2021/11/21 05:48:53;;;;;;;23.33;4.35;;;5.00;99.90;;;;;;5035539;28;20037;-67
2021/11/21 05:51:19;;;;;;;21.00;3.38;;;4.90;99.90;;;;;;5035439;28;20034;-67
2021/11/21 05:53:44;;;;;;;20.88;2.50;;;4.90;99.90;;;;;;5034941;28;20017;-66
2021/11/21 05:56:10;;;;;;;42.90;3.80;;;4.80;99.90;;;;;;5035690;28;20379;-66
2021/11/21 05:58:35;;;;;;;21.05;2.17;;;4.70;99.90;;;;;;5035415;28;20044;-67
2021/11/21 06:01:01;;;;;;;27.58;2.75;;;4.60;99.90;;;;;;5035063;28;20026;-66
2021/11/21 06:03:27;;;;;;;17.95;2.40;;;4.60;99.90;;;;;;5035333;28;20032;-66
2021/11/21 06:05:53;;;;;;;18.73;2.65;;;4.60;99.90;;;;;;5035236;28;20476;-66
2021/11/21 06:08:18;;;;;;;44.63;6.43;;;4.60;99.90;;;;;;5037159;28;20022;-66
2021/11/21 06:10:45;;;;;;;35.42;4.68;;;4.80;99.90;;;;;;5042687;28;20021;-66
2021/11/21 06:13:11;;;;;;;24.00;3.17;;;5.20;99.90;;;;;;5055077;28;20515;-66
2021/11/21 06:15:37;;;;;;;23.23;2.88;;;5.50;99.90;;;;;;5055289;28;20369;-67
2021/11/21 06:18:03;;;;;;;31.00;2.83;;;5.80;99.90;;;;;;5054433;28;20028;-67
2021/11/21 06:20:29;;;;;;;17.63;2.85;;;5.90;99.90;;;;;;5036695;28;20030;-67
2021/11/21 06:22:55;;;;;;;23.85;3.55;;;5.90;99.90;;;;;;5035213;28;20071;-67
2021/11/21 06:25:20;;;;;;;22.55;2.35;;;5.80;99.90;;;;;;5035114;28;20026;-67
2021/11/21 06:27:46;;;;;;;29.50;2.45;;;5.80;99.90;;;;;;5053682;28;20033;-67
2021/11/21 06:30:12;;;;;;;24.52;2.10;;;5.70;99.90;;;;;;5054988;28;20476;-67
2021/11/21 06:32:38;;;;;;;21.33;2.17;;;5.60;99.90;;;;;;5054576;28;20017;-67
2021/11/21 06:35:05;;;;;;;20.38;2.03;;;5.50;99.90;;;;;;5054644;28;20021;-67
2021/11/21 06:37:31;;;;;;;21.77;2.22;;;5.40;99.90;;;;;;5054353;28;20032;-67
2021/11/21 06:39:57;;;;;;;23.13;3.28;;;5.30;99.90;;;;;;5036073;28;20447;-67
2021/11/21 06:42:23;;;;;;;17.55;2.40;;;5.20;99.90;;;;;;5034607;28;20387;-67
2021/11/21 06:44:49;;;;;;;22.52;2.17;;;5.20;99.90;;;;;;5034460;28;20100;-67
2021/11/21 06:47:15;;;;;;;17.27;1.73;;;5.20;99.90;;;;;;5033946;28;20424;-67
2021/11/21 06:49:41;;;;;;;17.88;2.42;;;5.20;99.90;;;;;;5034395;28;20104;-67
2021/11/21 06:52:07;;;;;;;22.27;2.88;;;5.20;99.90;;;;;;5034140;28;20036;-67
2021/11/21 06:54:33;;;;;;;22.15;2.47;;;5.50;99.90;;;;;;5034044;28;20032;-67
2021/11/21 06:56:58;;;;;;;22.48;1.98;;;5.70;99.90;;;;;;5034567;28;20400;-67
2021/11/21 06:59:24;;;;;;;29.52;2.95;;;5.90;99.90;;;;;;5034159;28;20029;-67
2021/11/21 07:01:49;;;;;;;17.35;1.88;;;5.90;99.90;;;;;;5036530;28;20079;-67
2021/11/21 07:04:15;;;;;;;17.13;2.08;;;5.80;99.90;;;;;;5042317;28;20033;-67
2021/11/21 07:06:43;;;;;;;21.73;1.65;;;5.80;99.90;;;;;;5034250;28;20155;-67
2021/11/21 07:09:11;;;;;;;7.80;1.52;;;5.60;99.90;;;;;;5034361;28;20028;-67
2021/11/21 07:11:38;;;;;;;11.45;1.88;;;5.50;99.90;;;;;;5033862;28;20021;-67
2021/11/21 07:14:04;;;;;;;11.90;1.50;;;5.30;99.90;;;;;;5033419;28;20018;-67
2021/11/21 07:16:29;;;;;;;30.67;2.10;;;5.20;99.90;;;;;;5033907;28;20025;-67
2021/11/21 07:18:55;;;;;;;17.33;2.45;;;5.10;99.90;;;;;;5033896;28;20029;-67
2021/11/21 07:21:21;;;;;;;6.65;1.50;;;5.00;99.90;;;;;;5034053;28;20080;-67
2021/11/21 07:23:46;;;;;;;6.03;1.50;;;4.90;99.90;;;;;;5033652;28;20495;-67
2021/11/21 07:26:12;;;;;;;9.23;1.80;;;4.70;99.90;;;;;;5033689;28;20036;-67
2021/11/21 07:28:38;;;;;;;10.38;1.67;;;4.70;99.90;;;;;;5033213;28;20021;-67
2021/11/21 07:31:04;;;;;;;14.35;1.40;;;4.70;99.90;;;;;;5033793;28;20022;-67
2021/11/21 07:33:30;;;;;;;16.50;2.13;;;4.80;99.90;;;;;;5033917;28;20437;-67
2021/11/21 07:35:56;;;;;;;9.75;1.20;;;4.90;99.90;;;;;;5033096;28;20030;-67
2021/11/21 07:38:22;;;;;;;18.00;2.30;;;4.80;99.90;;;;;;5036041;28;20061;-67
2021/11/21 07:40:49;;;;;;;32.58;2.47;;;4.80;99.90;;;;;;5033497;28;20049;-67
2021/11/21 07:43:15;;;;;;;22.38;2.30;;;4.80;99.90;;;;;;5039744;28;20029;-67
2021/11/21 07:45:41;;;;;;;41.95;3.35;;;4.70;99.90;;;;;;5052771;28;20037;-67
2021/11/21 07:48:07;;;;;;;16.23;2.30;;;4.80;99.90;;;;;;5053586;28;20208;-67
2021/11/21 07:50:33;;;;;;;24.80;3.55;;;4.80;99.90;;;;;;5053335;28;20138;-67
2021/11/21 07:52:59;;;;;;;23.17;2.33;;;4.70;99.90;;;;;;5044581;28;20388;-67
2021/11/21 07:55:24;;;;;;;24.17;2.60;;;4.80;99.90;;;;;;5032828;28;20037;-67
2021/11/21 07:57:50;;;;;;;27.33;2.80;;;4.80;99.90;;;;;;5033313;28;20507;-67
2021/11/21 08:00:16;;;;;;;20.90;2.55;;;4.90;99.90;;;;;;5033475;28;20484;-67
2021/11/21 08:02:43;;;;;;;30.13;3.10;;;5.00;99.90;;;;;;5033223;28;20029;-67
2021/11/21 08:05:09;;;;;;;25.63;3.05;;;5.00;99.90;;;;;;5032872;28;20032;-67
2021/11/21 08:07:35;;;;;;;24.10;2.53;;;5.00;99.90;;;;;;5033126;28;20033;-67
2021/11/21 08:10:01;;;;;;;15.13;2.55;;;4.90;99.90;;;;;;5033422;28;20021;-67
2021/11/21 08:12:26;;;;;;;20.05;3.13;;;4.90;99.90;;;;;;5033389;28;20357;-67
2021/11/21 08:14:52;;;;;;;26.33;2.47;;;4.90;99.90;;;;;;5033165;28;20022;-67
2021/11/21 08:17:17;;;;;;;20.08;2.30;;;4.90;99.90;;;;;;5033367;28;20041;-67
2021/11/21 08:19:44;;;;;;;18.92;2.45;;;5.00;99.90;;;;;;5032801;28;20464;-67
2021/11/21 08:22:10;;;;;;;22.83;2.30;;;5.00;99.90;;;;;;5033236;28;20022;-67
2021/11/21 08:24:36;;;;;;;24.55;2.78;;;5.00;99.90;;;;;;5033337;28;20040;-67
2021/11/21 08:27:02;;;;;;;28.23;3.28;;;5.10;99.90;;;;;;5032743;28;20025;-67
2021/11/21 08:29:27;;;;;;;23.50;3.45;;;5.10;99.90;;;;;;5035568;28;20029;-67
2021/11/21 08:31:53;;;;;;;12.57;2.13;;;5.30;99.90;;;;;;5032372;28;20017;-66
2021/11/21 08:34:19;;;;;;;27.02;2.92;;;5.40;99.90;;;;;;5040706;28;20029;-66
2021/11/21 08:36:45;;;;;;;28.40;2.67;;;5.70;99.90;;;;;;5052989;28;20029;-67
2021/11/21 08:39:11;;;;;;;32.20;2.33;;;5.90;99.90;;;;;;5041989;28;20057;-67
2021/11/21 08:41:37;;;;;;;25.50;3.10;;;6.10;99.90;;;;;;5033145;28;20022;-67
2021/11/21 08:44:03;;;;;;;24.45;2.30;;;6.30;99.90;;;;;;5032905;28;20498;-67
2021/11/21 08:46:29;;;;;;;25.38;2.38;;;6.40;99.90;;;;;;5032764;28;20037;-67
2021/11/21 08:48:55;;;;;;;22.88;2.40;;;6.50;99.90;;;;;;5032487;28;20030;-67
2021/11/21 08:51:21;;;;;;;20.52;2.47;;;6.60;99.90;;;;;;5032579;28;20045;-67
2021/11/21 08:53:47;;;;;;;26.30;2.58;;;6.60;99.90;;;;;;5045374;28;20032;-67
2021/11/21 08:56:16;;;;;;;17.75;1.90;;;6.70;99.90;;;;;;5052935;28;20108;-67
2021/11/21 08:58:42;;;;;;;17.02;2.35;;;6.80;99.90;;;;;;5052936;28;20052;-67
2021/11/21 09:01:08;;;;;;;23.83;2.60;;;6.90;99.90;;;;;;5049519;28;20036;-67
2021/11/21 09:03:35;;;;;;;34.08;3.42;;;7.10;99.90;;;;;;5050069;28;20021;-67
2021/11/21 09:06:01;;;;;;;15.40;1.83;;;7.20;99.90;;;;;;5056234;28;20510;-67
2021/11/21 09:08:26;;;;;;;19.42;2.45;;;7.40;99.90;;;;;;5056576;28;20029;-67
2021/11/21 09:10:53;;;;;;;21.63;3.20;;;7.50;99.90;;;;;;5055707;28;20021;-67
2021/11/21 09:13:19;;;;;;;10.18;1.73;;;7.60;99.90;;;;;;5056468;28;20079;-67
2021/11/21 09:15:44;;;;;;;14.30;2.33;;;7.60;99.90;;;;;;5045764;28;20108;-67
2021/11/21 09:18:10;;;;;;;17.65;2.22;;;7.70;99.90;;;;;;5035923;28;20025;-67
2021/11/21 09:20:36;;;;;;;24.63;2.80;;;7.70;99.90;;;;;;5036361;28;20476;-67
2021/11/21 09:23:03;;;;;;;18.08;1.80;;;7.80;99.90;;;;;;5036160;28;20029;-67
2021/11/21 09:25:30;;;;;;;17.08;3.00;;;7.90;99.90;;;;;;5035917;28;20492;-67
2021/11/21 09:27:56;;;;;;;12.88;2.30;;;7.90;99.90;;;;;;5036269;28;20488;-67
2021/11/21 09:30:25;;;;;;;14.90;1.85;;;7.90;99.90;;;;;;5036168;28;20056;-67
2021/11/21 09:32:51;;;;;;;14.40;2.22;;;7.80;99.90;;;;;;5035665;28;20021;-67
2021/11/21 09:35:18;;;;;;;8.80;1.45;;;7.70;99.90;;;;;;5036089;28;20029;-67
2021/11/21 09:37:43;;;;;;;15.10;1.90;;;7.50;99.90;;;;;;5035803;28;20040;-67
2021/11/21 09:40:10;;;;;;;12.75;2.20;;;7.40;99.90;;;;;;5035739;28;20025;-67
2021/11/21 09:42:37;;;;;;;10.40;1.60;;;7.30;99.90;;;;;;5035365;28;20037;-67
2021/11/21 09:45:04;;;;;;;14.48;2.10;;;7.30;99.90;;;;;;5035925;28;20503;-67
2021/11/21 09:47:30;;;;;;;10.88;1.83;;;7.30;99.90;;;;;;5035636;28;20025;-67
2021/11/21 09:50:00;;;;;;;11.40;1.50;;;7.40;99.90;;;;;;5035320;28;20388;-67
2021/11/21 09:52:26;;;;;;;22.25;2.03;;;7.30;99.90;;;;;;5035402;28;20036;-67
2021/11/21 09:54:51;;;;;;;14.57;1.98;;;7.30;99.90;;;;;;5036043;28;20029;-68
2021/11/21 09:57:17;;;;;;;6.25;1.00;;;7.30;99.90;;;;;;5036047;28;20467;-68
2021/11/21 09:59:53;;;;;;;11.27;1.55;;;7.20;99.90;;;;;;5034950;28;20029;-67
2021/11/21 10:02:25;;;;;;;9.43;1.70;;;7.20;99.90;;;;;;5040647;28;20037;-67
2021/11/21 10:04:52;;;;;;;14.52;1.67;;;7.20;99.90;;;;;;5055241;28;20029;-68
2021/11/21 10:07:29;;;;;;;9.88;1.83;;;7.40;99.90;;;;;;5048482;28;20515;-68
2021/11/21 10:09:57;;;;;;;8.07;1.02;;;7.60;99.90;;;;;;5035481;28;20048;-68
2021/11/21 10:12:24;;;;;;;2.58;0.93;;;7.70;99.90;;;;;;5034984;28;20053;-67
2021/11/21 10:15:02;;;;;;;5.38;1.35;;;7.70;99.90;;;;;;5054702;28;20403;-67
2021/11/21 10:17:30;;;;;;;17.75;1.63;;;7.80;99.90;;;;;;5055598;28;20037;-67
2021/11/21 10:20:09;;;;;;;11.27;1.77;;;8.00;99.90;;;;;;5038563;28;20358;-68
2021/11/21 10:22:58;;;;;;;11.93;1.88;;;8.30;99.90;;;;;;5034654;28;20182;-68
2021/11/21 10:25:37;;;;;;;22.52;2.08;;;8.30;99.90;;;;;;5035148;28;20384;-68
2021/11/21 10:28:02;;;;;;;12.68;1.58;;;8.40;99.90;;;;;;5035196;28;20052;-68
2021/11/21 10:30:29;;;;;;;19.20;2.20;;;8.50;99.90;;;;;;5034452;28;20056;-67
2021/11/21 10:32:55;;;;;;;16.08;1.77;;;8.70;99.90;;;;;;5034710;28;20540;-68
2021/11/21 10:35:23;;;;;;;10.98;2.05;;;8.80;99.90;;;;;;5034969;28;20152;-68
2021/11/21 10:37:49;;;;;;;11.43;1.77;;;9.00;99.90;;;;;;5034990;28;20034;-68
2021/11/21 10:40:18;;;;;;;18.05;2.55;;;9.10;99.90;;;;;;5034878;28;20388;-68
2021/11/21 10:42:46;;;;;;;17.58;3.50;;;9.10;99.90;;;;;;5035167;28;20029;-67
2021/11/21 10:45:14;;;;;;;16.83;3.25;;;9.10;99.90;;;;;;5034461;28;20026;-68
2021/11/21 10:47:47;;;;;;;15.18;3.10;;;9.00;99.90;;;;;;5041366;28;20108;-68
2021/11/21 10:50:26;;;;;;;20.25;4.05;;;8.80;99.90;;;;;;5034798;28;20033;-68
2021/11/21 10:52:52;;;;;;;19.48;4.90;;;8.70;99.90;;;;;;5040984;28;20032;-68
2021/11/21 10:55:18;;;;;;;14.65;2.78;;;8.50;99.90;;;;;;5054546;28;20033;-68
2021/11/21 10:57:43;;;;;;;9.20;2.17;;;8.40;99.90;;;;;;5050068;28;20388;-67
2021/11/21 11:00:26;;;;;;;12.68;3.67;;;8.30;99.90;;;;;;5034528;28;20029;-68
2021/11/21 11:02:53;;;;;;;16.77;2.42;;;8.10;99.90;;;;;;5046514;28;20044;-68
2021/11/21 11:05:24;;;;;;;26.20;2.97;;;8.10;99.90;;;;;;5044279;28;20025;-67
2021/11/21 11:07:57;;;;;;;20.30;2.13;;;8.10;99.90;;;;;;5034704;28;20076;-68
2021/11/21 11:10:26;;;;;;;9.90;1.98;;;8.20;99.90;;;;;;5033283;28;20080;-67
2021/11/21 11:13:14;;;;;;;10.35;1.70;;;8.40;99.90;;;;;;5033921;28;20061;-68
2021/11/21 11:15:42;;;;;;;16.30;3.42;;;8.60;99.90;;;;;;5034263;28;20044;-68
2021/11/21 11:18:10;;;;;;;13.73;2.55;;;8.70;99.90;;;;;;5034194;28;20524;-68
2021/11/21 11:20:44;;;;;;;8.75;1.27;;;8.80;99.90;;;;;;5033517;28;20112;-68
2021/11/21 11:23:13;;;;;;;11.70;1.27;;;8.90;99.90;;;;;;5034073;28;20029;-68
2021/11/21 11:25:39;;;;;;;11.00;1.60;;;9.10;99.90;;;;;;5033741;28;20546;-68
2021/11/21 11:28:19;;;;;;;6.20;1.33;;;9.40;99.90;;;;;;5033627;28;20056;-68
2021/11/21 11:30:45;;;;;;;10.85;1.30;;;9.60;99.90;;;;;;5033671;28;20527;-68
2021/11/21 11:33:12;;;;;;;17.40;1.40;;;9.60;99.90;;;;;;5033152;28;20029;-68
2021/11/21 11:35:41;;;;;;;9.50;1.42;;;9.70;99.90;;;;;;5033915;28;20029;-68
2021/11/21 11:38:20;;;;;;;11.23;1.60;;;9.70;99.90;;;;;;5033846;28;20045;-68
2021/11/21 11:41:03;;;;;;;13.90;1.95;;;9.80;99.90;;;;;;5033841;28;20500;-68
2021/11/21 11:43:32;;;;;;;9.57;1.52;;;9.70;99.90;;;;;;5033121;28;20056;-68
2021/11/21 11:46:03;;;;;;;9.93;1.75;;;9.80;99.90;;;;;;5033652;28;20136;-68
2021/11/21 11:48:51;;;;;;;19.30;1.55;;;9.90;99.90;;;;;;5048234;28;20029;-68
2021/11/21 11:51:48;;;;;;;6.40;1.63;;;10.10;99.90;;;;;;5053714;28;20025;-67
2021/11/21 11:54:15;;;;;;;6.13;0.82;;;10.30;99.90;;;;;;5051118;28;20026;-68
2021/11/21 11:56:49;;;;;;;8.15;1.05;;;10.30;99.90;;;;;;5052809;28;20021;-68
2021/11/21 11:59:38;;;;;;;10.18;2.20;;;10.20;99.90;;;;;;5053365;28;20035;-68
2021/11/21 12:02:04;;;;;;;6.88;1.20;;;10.20;99.90;;;;;;5035334;28;20032;-68
2021/11/21 12:04:29;;;;;;;11.02;1.80;;;10.10;99.90;;;;;;5040757;28;20431;-68
2021/11/21 12:06:57;;;;;;;9.55;1.60;;;10.00;99.90;;;;;;5032690;28;20056;-67
2021/11/21 12:09:25;;;;;;;3.50;1.10;;;9.80;99.90;;;;;;5033189;28;20022;-67
2021/11/21 12:11:58;;;;;;;2.83;1.17;;;9.60;99.90;;;;;;5033212;28;20380;-68
2021/11/21 12:14:31;;;;;;;3.33;1.13;;;9.40;99.90;;;;;;5033461;28;20079;-68
2021/11/21 12:17:00;;;;;;;9.65;1.27;;;9.30;99.90;;;;;;5033438;28;20477;-68
2021/11/21 12:19:43;;;;;;;6.32;1.52;;;9.30;99.90;;;;;;5032738;28;20025;-67
2021/11/21 12:22:24;;;;;;;10.00;1.00;;;9.40;99.90;;;;;;5032964;28;20034;-68
2021/11/21 12:24:54;;;;;;;4.63;0.88;;;9.40;99.90;;;;;;5033247;28;20044;-67
2021/11/21 12:27:26;;;;;;;7.78;0.90;;;9.30;99.90;;;;;;5037473;28;20392;-67
2021/11/21 12:30:22;;;;;;;6.70;1.20;;;9.20;99.90;;;;;;5032731;28;20025;-68
2021/11/21 12:33:01;;;;;;;5.03;1.33;;;9.30;99.90;;;;;;5020481;28;20050;-68
2021/11/21 12:35:33;;;;;;;8.88;1.42;;;9.20;99.90;;;;;;5033249;28;20033;-68
2021/11/21 12:38:06;;;;;;;6.47;0.90;;;9.10;99.90;;;;;;5037768;28;20033;-68
2021/11/21 12:40:45;;;;;;;4.13;1.20;;;9.00;99.90;;;;;;5057097;28;20020;-68
2021/11/21 12:43:15;;;;;;;17.73;1.60;;;8.80;99.90;;;;;;5056823;28;20557;-68
2021/11/21 12:45:41;;;;;;;8.52;1.50;;;8.60;99.90;;;;;;5056983;28;20035;-68
2021/11/21 12:48:09;;;;;;;8.00;1.00;;;8.50;99.90;;;;;;5056951;28;20099;-67